createdAt,value
2018-09-10T00:03:31.308Z,99.90
2018-09-10T00:08:33.839Z,99.90
2018-09-10T00:13:36.379Z,99.90
2018-09-10T00:18:38.934Z,99.90
2018-09-10T00:23:41.455Z,99.90
2018-09-10T00:28:43.987Z,99.90
2018-09-10T00:33:46.533Z,99.90
2018-09-10T00:38:49.042Z,99.90
2018-09-10T00:43:51.581Z,99.90
2018-09-10T00:48:54.168Z,99.90
2018-09-10T00:53:56.712Z,99.90
2018-09-10T00:58:59.260Z,99.90
2018-09-10T01:04:01.806Z,99.90
2018-09-10T01:09:06.603Z,99.90
2018-09-10T01:14:09.133Z,99.90
2018-09-10T01:19:11.662Z,99.90
2018-09-10T01:24:14.199Z,99.90
2018-09-10T01:29:16.744Z,99.90
2018-09-10T01:34:25.012Z,99.90
2018-09-10T01:39:27.539Z,99.90
2018-09-10T01:44:30.060Z,99.90
2018-09-10T01:49:32.731Z,99.90
2018-09-10T01:54:35.256Z,99.90
2018-09-10T01:59:37.782Z,99.90
2018-09-10T02:04:40.312Z,99.90
2018-09-10T02:09:42.874Z,99.90
2018-09-10T02:14:45.400Z,99.90
2018-09-10T02:19:47.900Z,99.90
2018-09-10T02:24:50.858Z,99.90
2018-09-10T02:29:53.363Z,99.90
2018-09-10T02:34:55.914Z,99.90
2018-09-10T02:39:58.506Z,99.90
2018-09-10T02:45:01.059Z,99.90
2018-09-10T02:50:03.724Z,99.90
2018-09-10T02:55:06.319Z,99.90
2018-09-10T03:00:09.340Z,99.90
2018-09-10T03:05:11.859Z,99.90
2018-09-10T03:10:14.355Z,99.90
2018-09-10T03:15:16.885Z,99.90
2018-09-10T03:20:19.528Z,99.90
2018-09-10T03:25:22.079Z,99.90
2018-09-10T03:30:24.623Z,99.90
2018-09-10T03:35:27.151Z,99.90
2018-09-10T03:40:29.661Z,99.90
2018-09-10T03:45:32.173Z,99.90
2018-09-10T03:50:34.812Z,99.90
2018-09-10T03:55:37.360Z,99.90
2018-09-10T04:00:39.911Z,99.90
2018-09-10T04:05:42.411Z,99.90
2018-09-10T04:10:44.928Z,99.90
2018-09-10T04:15:47.457Z,99.90
2018-09-10T04:20:50.796Z,99.90
2018-09-10T04:25:53.341Z,99.90
2018-09-10T04:30:55.824Z,99.90
2018-09-10T04:35:58.392Z,99.90
2018-09-10T04:41:00.936Z,99.90
2018-09-10T04:46:03.491Z,99.90
2018-09-10T04:51:06.026Z,99.90
2018-09-10T04:56:08.539Z,99.90
2018-09-10T05:01:11.120Z,99.90
2018-09-10T05:06:13.633Z,99.90
2018-09-10T05:11:16.154Z,99.90
2018-09-10T05:16:18.674Z,99.90
2018-09-10T05:21:21.183Z,99.90
2018-09-10T05:26:23.715Z,99.90
2018-09-10T05:36:28.670Z,99.90
2018-09-10T05:41:31.192Z,99.90
2018-09-10T05:46:33.764Z,99.90
2018-09-10T05:51:36.295Z,99.90
2018-09-10T05:56:38.833Z,99.90
2018-09-10T06:01:41.363Z,99.90
2018-09-10T06:06:44.476Z,99.90
2018-09-10T06:11:47.007Z,99.90
2018-09-10T06:16:49.588Z,99.90
2018-09-10T06:21:52.231Z,99.90
2018-09-10T06:26:54.768Z,99.90
2018-09-10T06:31:58.905Z,99.90
2018-09-10T06:37:01.566Z,99.90
2018-09-10T06:42:04.038Z,99.90
2018-09-10T06:47:06.617Z,99.90
2018-09-10T06:52:09.158Z,99.90
2018-09-10T06:57:11.759Z,99.90
2018-09-10T07:02:14.262Z,99.90
2018-09-10T07:07:16.777Z,99.90
2018-09-10T07:12:19.331Z,99.90
2018-09-10T07:17:21.848Z,99.90
2018-09-10T07:22:24.354Z,99.90
2018-09-10T07:27:26.877Z,99.90
2018-09-10T07:32:29.424Z,99.90
2018-09-10T07:37:31.975Z,99.90
2018-09-10T07:42:34.554Z,99.90
2018-09-10T07:47:37.070Z,99.90
2018-09-10T07:52:39.591Z,99.90
2018-09-10T07:57:42.107Z,99.90
2018-09-10T08:02:44.603Z,99.90
2018-09-10T08:07:47.114Z,99.90
2018-09-10T08:12:49.639Z,99.90
2018-09-10T08:17:52.148Z,99.90
2018-09-10T08:22:54.719Z,99.90
2018-09-10T08:27:57.290Z,99.90
2018-09-10T08:32:59.882Z,97.40
2018-09-10T08:38:02.426Z,92.40
2018-09-10T08:43:05.519Z,86.50
2018-09-10T08:48:08.186Z,81.50
2018-09-10T08:53:10.734Z,76.10
2018-09-10T08:58:13.276Z,68.90
2018-09-10T09:03:15.804Z,64.10
2018-09-10T09:08:18.340Z,62.40
2018-09-10T09:13:20.971Z,59.90
2018-09-10T09:18:23.488Z,59.80
2018-09-10T09:23:26.148Z,56.70
2018-09-10T09:28:28.647Z,55.40
2018-09-10T09:33:31.171Z,52.40
2018-09-10T09:38:39.258Z,47.60
2018-09-10T09:43:47.368Z,47.10
2018-09-10T09:48:49.906Z,45.30
2018-09-10T09:53:52.450Z,43.50
2018-09-10T09:58:55.099Z,42.10
2018-09-10T10:04:02.194Z,41.50
2018-09-10T10:09:11.135Z,40.10
2018-09-10T10:14:13.647Z,36.20
2018-09-10T10:19:16.191Z,38.00
2018-09-10T10:24:18.694Z,36.90
2018-09-10T10:29:21.220Z,36.10
2018-09-10T10:34:23.753Z,34.80
2018-09-10T10:39:26.303Z,36.20
2018-09-10T10:44:28.834Z,34.20
2018-09-10T10:49:31.355Z,35.20
2018-09-10T10:54:33.899Z,33.00
2018-09-10T10:59:36.555Z,35.70
2018-09-10T11:04:40.012Z,34.60
2018-09-10T11:09:42.554Z,32.70
2018-09-10T11:14:45.078Z,30.10
2018-09-10T11:19:47.783Z,29.10
2018-09-10T11:24:50.293Z,28.10
2018-09-10T11:29:52.811Z,27.30
2018-09-10T11:34:56.132Z,27.10
2018-09-10T11:39:58.724Z,26.40
2018-09-10T11:45:01.363Z,26.40
2018-09-10T11:50:04.081Z,28.50
2018-09-10T11:55:06.628Z,28.30
2018-09-10T12:00:09.186Z,28.80
2018-09-10T12:05:11.814Z,25.30
2018-09-10T12:10:14.385Z,25.40
2018-09-10T12:15:16.956Z,24.00
2018-09-10T12:20:19.513Z,24.80
2018-09-10T12:25:22.063Z,23.00
2018-09-10T12:30:24.597Z,23.90
2018-09-10T12:35:27.137Z,24.10
2018-09-10T12:40:29.698Z,23.10
2018-09-10T12:45:32.245Z,22.80
2018-09-10T12:50:34.786Z,21.50
2018-09-10T12:55:38.091Z,21.30
2018-09-10T13:00:40.620Z,20.20
2018-09-10T13:05:43.136Z,21.30
2018-09-10T13:10:45.832Z,21.50
2018-09-10T13:15:48.322Z,20.80
2018-09-10T13:20:50.860Z,20.20
2018-09-10T13:25:53.459Z,20.20
2018-09-10T13:30:55.989Z,20.30
2018-09-10T13:35:59.093Z,20.40
2018-09-10T13:41:01.855Z,20.60
2018-09-10T13:46:04.410Z,20.40
2018-09-10T13:51:06.980Z,20.70
2018-09-10T13:56:09.558Z,20.60
2018-09-10T14:01:12.103Z,21.20
2018-09-10T14:06:14.683Z,20.40
2018-09-10T14:11:17.206Z,19.30
2018-09-10T14:16:19.748Z,19.50
2018-09-10T14:21:22.292Z,20.90
2018-09-10T14:26:24.814Z,21.00
2018-09-10T14:31:27.442Z,21.00
2018-09-10T14:36:29.964Z,22.60
2018-09-10T14:41:32.502Z,21.90
2018-09-10T14:46:35.055Z,21.20
2018-09-10T14:51:38.101Z,22.90
2018-09-10T14:56:40.694Z,23.70
2018-09-10T15:01:43.208Z,22.10
2018-09-10T15:06:45.747Z,21.10
2018-09-10T15:11:48.291Z,20.50
2018-09-10T15:16:50.874Z,20.30
2018-09-10T15:21:53.534Z,21.20
2018-09-10T15:26:56.114Z,21.40
2018-09-10T15:31:59.318Z,23.10
2018-09-10T15:37:01.864Z,21.60
2018-09-10T15:42:04.947Z,20.60
2018-09-10T15:47:07.531Z,22.10
2018-09-10T15:52:10.115Z,24.10
2018-09-10T15:57:12.674Z,23.90
2018-09-10T16:02:15.823Z,21.30
2018-09-10T16:07:18.899Z,21.60
2018-09-10T16:12:21.405Z,21.10
2018-09-10T16:17:23.934Z,25.10
2018-09-10T16:22:26.478Z,28.10
2018-09-10T16:27:29.058Z,26.70
2018-09-10T16:32:31.570Z,27.90
2018-09-10T16:37:34.151Z,31.00
2018-09-10T16:42:36.726Z,33.90
2018-09-10T16:47:39.295Z,37.60
2018-09-10T16:52:41.975Z,40.00
2018-09-10T16:57:44.534Z,42.40
2018-09-10T17:02:47.482Z,41.00
2018-09-10T17:07:50.015Z,42.00
2018-09-10T17:12:52.622Z,44.00
2018-09-10T17:17:55.174Z,48.20
2018-09-10T17:22:57.784Z,50.40
2018-09-10T17:28:00.328Z,52.10
2018-09-10T17:33:02.895Z,54.00
2018-09-10T17:38:05.489Z,56.20
2018-09-10T17:43:08.149Z,58.70
2018-09-10T17:48:10.713Z,61.40
2018-09-10T17:53:13.353Z,65.40
2018-09-10T17:58:15.971Z,71.70
2018-09-10T18:03:18.586Z,78.80
2018-09-10T18:08:21.190Z,90.50
2018-09-10T18:13:23.862Z,91.00
2018-09-10T18:18:26.488Z,93.70
2018-09-10T18:23:29.170Z,94.50
2018-09-10T18:28:31.737Z,96.80
2018-09-10T18:33:34.346Z,97.80
2018-09-10T18:38:36.986Z,95.70
2018-09-10T18:43:39.560Z,97.40
2018-09-10T18:48:42.614Z,95.80
2018-09-10T18:53:45.197Z,95.20
2018-09-10T18:58:47.820Z,94.70
2018-09-10T19:03:50.447Z,96.80
2018-09-10T19:08:52.995Z,99.60
2018-09-10T19:13:55.669Z,98.60
2018-09-10T19:18:58.324Z,96.80
2018-09-10T19:24:01.059Z,96.90
2018-09-10T19:29:04.363Z,95.20
2018-09-10T19:34:06.909Z,94.50
2018-09-10T19:39:10.571Z,94.80
2018-09-10T19:44:13.360Z,94.80
2018-09-10T19:49:15.930Z,96.10
2018-09-10T19:54:18.542Z,96.20
2018-09-10T19:59:21.379Z,95.40
2018-09-10T20:04:23.986Z,96.40
2018-09-10T20:09:26.605Z,96.80
2018-09-10T20:14:29.213Z,97.00
2018-09-10T20:19:31.804Z,96.10
2018-09-10T20:24:34.384Z,96.20
2018-09-10T20:29:36.907Z,96.30
2018-09-10T20:34:41.316Z,96.60
2018-09-10T20:39:44.053Z,97.40
2018-09-10T20:44:46.578Z,96.80
2018-09-10T20:49:49.145Z,98.80
2018-09-10T20:54:51.736Z,99.90
2018-09-10T20:59:54.307Z,99.90
2018-09-10T21:04:56.887Z,99.90
2018-09-10T21:09:59.435Z,99.90
2018-09-10T21:15:02.028Z,99.90
2018-09-10T21:20:04.676Z,99.90
2018-09-10T21:25:07.294Z,99.90
2018-09-10T21:30:09.860Z,99.90
2018-09-10T21:35:12.379Z,99.90
2018-09-10T21:40:15.660Z,99.90
2018-09-10T21:45:18.227Z,99.90
2018-09-10T21:50:20.784Z,99.90
2018-09-10T21:55:23.453Z,99.90
2018-09-10T22:00:26.421Z,99.90
2018-09-10T22:05:29.065Z,99.90
2018-09-10T22:10:31.615Z,99.90
2018-09-10T22:15:34.255Z,99.90
2018-09-10T22:20:36.778Z,99.90
2018-09-10T22:25:39.596Z,99.90
2018-09-10T22:30:42.154Z,99.90
2018-09-10T22:35:44.655Z,99.90
2018-09-10T22:40:47.188Z,99.90
2018-09-10T22:45:49.822Z,99.90
2018-09-10T22:50:52.354Z,99.90
2018-09-10T22:55:54.914Z,99.90
2018-09-10T23:00:57.402Z,99.90
2018-09-10T23:05:59.944Z,99.90
2018-09-10T23:11:02.486Z,99.90
2018-09-10T23:16:05.700Z,99.90
2018-09-10T23:21:08.231Z,99.90
2018-09-10T23:26:10.767Z,99.90
2018-09-10T23:31:13.305Z,99.90
2018-09-10T23:36:15.827Z,99.90
2018-09-10T23:41:18.406Z,99.90
2018-09-10T23:46:20.985Z,99.90
2018-09-10T23:51:23.504Z,99.90
2018-09-10T23:56:26.064Z,99.90
